createdAt,value
2023-05-05T00:02:07.228Z,9.15
2023-05-05T00:09:27.037Z,9.13
2023-05-05T00:16:45.531Z,9.06
2023-05-05T00:24:04.374Z,9.12
2023-05-05T00:31:24.287Z,8.95
2023-05-05T00:38:42.720Z,8.94
2023-05-05T00:46:03.317Z,8.94
2023-05-05T00:53:23.558Z,8.89
2023-05-05T01:00:42.146Z,8.78
2023-05-05T01:08:15.156Z,8.73
2023-05-05T01:15:37.745Z,8.71
2023-05-05T01:23:01.290Z,8.79
2023-05-05T01:30:22.437Z,8.75
2023-05-05T01:37:47.728Z,8.60
2023-05-05T01:45:09.129Z,8.62
2023-05-05T01:52:28.117Z,8.64
2023-05-05T01:59:48.148Z,8.51
2023-05-05T02:07:06.636Z,8.51
2023-05-05T02:14:28.284Z,8.38
2023-05-05T02:21:48.190Z,8.30
2023-05-05T02:29:08.786Z,8.18
2023-05-05T02:36:30.105Z,8.18
2023-05-05T02:43:56.204Z,8.16
2023-05-05T02:51:14.933Z,8.13
2023-05-05T02:58:39.525Z,8.10
2023-05-05T03:06:05.685Z,8.02
2023-05-05T03:13:26.524Z,7.94
2023-05-05T03:20:45.206Z,7.94
2023-05-05T03:28:08.010Z,7.96
2023-05-05T03:35:27.267Z,7.88
2023-05-05T03:42:46.032Z,7.90
2023-05-05T03:50:07.830Z,7.93
2023-05-05T03:57:27.204Z,7.92
2023-05-05T04:04:45.713Z,8.01
2023-05-05T04:12:07.748Z,8.01
2023-05-05T04:19:26.158Z,8.02
2023-05-05T04:26:45.277Z,8.06
2023-05-05T04:34:05.683Z,8.14
2023-05-05T04:41:24.614Z,8.21
2023-05-05T04:48:43.334Z,8.75
2023-05-05T04:56:03.673Z,9.31
2023-05-05T05:03:22.138Z,12.08
2023-05-05T05:10:41.094Z,13.49
2023-05-05T05:18:01.560Z,14.11
2023-05-05T05:25:20.469Z,13.65
2023-05-05T05:32:40.236Z,14.74
2023-05-05T05:40:00.886Z,14.14
2023-05-05T05:47:22.555Z,14.30
2023-05-05T05:54:42.136Z,13.77
2023-05-05T06:02:03.784Z,13.67
2023-05-05T06:09:25.224Z,13.36
2023-05-05T06:16:45.827Z,14.61
2023-05-05T06:24:09.950Z,15.77
2023-05-05T06:31:28.498Z,16.30
2023-05-05T06:38:47.457Z,16.69
2023-05-05T06:46:07.752Z,17.09
2023-05-05T06:53:26.320Z,17.04
2023-05-05T07:00:44.601Z,16.72
2023-05-05T07:08:04.373Z,17.73
2023-05-05T07:15:28.065Z,18.60
2023-05-05T07:22:47.611Z,18.78
2023-05-05T07:30:13.214Z,19.64
2023-05-05T07:37:32.897Z,18.83
2023-05-05T07:44:51.040Z,19.44
2023-05-05T07:52:10.755Z,20.25
2023-05-05T07:59:29.924Z,20.96
2023-05-05T08:06:48.360Z,21.40
2023-05-05T08:14:08.807Z,21.21
2023-05-05T08:21:27.802Z,20.50
2023-05-05T08:28:46.841Z,21.24
2023-05-05T08:36:07.148Z,22.01
2023-05-05T08:43:25.280Z,21.89
2023-05-05T08:50:45.261Z,22.61
2023-05-05T08:58:05.191Z,22.81
2023-05-05T09:05:23.631Z,22.06
2023-05-05T09:12:42.389Z,22.10
2023-05-05T09:20:07.373Z,22.21
2023-05-05T09:27:25.943Z,22.83
2023-05-05T09:34:44.557Z,22.27
2023-05-05T09:42:05.032Z,22.87
2023-05-05T09:49:25.700Z,22.94
2023-05-05T09:56:44.289Z,23.49
2023-05-05T10:04:03.781Z,23.49
2023-05-05T10:11:22.357Z,24.08
2023-05-05T10:18:44.069Z,23.53
2023-05-05T10:26:07.679Z,23.27
2023-05-05T10:33:32.740Z,23.83
2023-05-05T10:40:51.759Z,24.12
2023-05-05T10:48:15.787Z,24.40
2023-05-05T10:55:38.015Z,24.31
2023-05-05T11:03:11.241Z,24.56
2023-05-05T11:10:31.566Z,24.51
2023-05-05T11:17:49.894Z,24.82
2023-05-05T11:25:41.649Z,23.65
2023-05-05T11:33:37.039Z,23.31
2023-05-05T11:41:00.369Z,23.76
2023-05-05T11:48:28.819Z,23.75
2023-05-05T11:55:47.138Z,24.28
2023-05-05T12:03:07.092Z,23.49
2023-05-05T12:10:25.829Z,23.12
2023-05-05T12:17:46.322Z,22.85
2023-05-05T12:25:07.873Z,22.30
2023-05-05T12:32:28.186Z,23.07
2023-05-05T12:39:46.897Z,22.67
2023-05-05T12:47:07.514Z,22.67
2023-05-05T12:54:29.654Z,22.92
2023-05-05T13:01:53.106Z,22.55
2023-05-05T13:09:25.835Z,21.85
2023-05-05T13:16:44.086Z,21.83
2023-05-05T13:24:20.773Z,21.57
2023-05-05T13:31:47.029Z,21.46
2023-05-05T13:39:06.585Z,21.76
2023-05-05T13:46:26.525Z,21.55
2023-05-05T13:53:47.892Z,21.21
2023-05-05T14:01:06.816Z,21.12
2023-05-05T14:08:25.572Z,21.57
2023-05-05T14:15:45.624Z,21.48
2023-05-05T14:23:04.772Z,21.55
2023-05-05T14:30:23.535Z,21.36
2023-05-05T14:37:43.619Z,21.27
2023-05-05T14:45:03.656Z,20.96
2023-05-05T14:52:21.929Z,20.86
2023-05-05T14:59:42.267Z,20.72
2023-05-05T15:07:00.981Z,20.71
2023-05-05T15:14:19.401Z,20.86
2023-05-05T15:21:39.054Z,20.78
2023-05-05T15:28:57.675Z,20.51
2023-05-05T15:36:17.355Z,20.07
2023-05-05T15:43:39.014Z,19.99
2023-05-05T15:50:57.562Z,19.99
2023-05-05T15:58:16.010Z,20.38
2023-05-05T16:05:36.361Z,20.29
2023-05-05T16:12:55.405Z,19.92
2023-05-05T16:20:14.537Z,19.87
2023-05-05T16:27:34.320Z,19.69
2023-05-05T16:34:52.904Z,19.60
2023-05-05T16:42:11.487Z,19.52
2023-05-05T16:49:31.503Z,19.44
2023-05-05T16:56:51.198Z,19.21
2023-05-05T17:04:09.972Z,19.00
2023-05-05T17:11:29.937Z,18.72
2023-05-05T17:18:48.415Z,18.46
2023-05-05T17:26:06.770Z,18.20
2023-05-05T17:33:26.494Z,18.03
2023-05-05T17:40:45.325Z,17.81
2023-05-05T17:48:04.082Z,17.58
2023-05-05T17:55:24.569Z,17.36
2023-05-05T18:02:43.578Z,17.35
2023-05-05T18:10:01.906Z,16.97
2023-05-05T18:17:22.079Z,16.62
2023-05-05T18:24:40.424Z,16.32
2023-05-05T18:31:59.658Z,16.02
2023-05-05T18:39:19.338Z,15.88
2023-05-05T18:46:38.220Z,15.76
2023-05-05T18:53:57.156Z,15.63
2023-05-05T19:01:17.605Z,15.43
2023-05-05T19:08:36.969Z,15.29
2023-05-05T19:15:57.657Z,15.05
2023-05-05T19:23:23.434Z,14.77
2023-05-05T19:30:49.029Z,14.59
2023-05-05T19:38:09.977Z,14.40
2023-05-05T19:45:30.405Z,14.22
2023-05-05T19:52:48.903Z,14.09
2023-05-05T20:00:10.730Z,13.96
2023-05-05T20:07:31.469Z,13.81
2023-05-05T20:14:50.454Z,13.73
2023-05-05T20:22:09.622Z,13.55
2023-05-05T20:29:30.539Z,13.36
2023-05-05T20:36:49.520Z,13.25
2023-05-05T20:44:09.908Z,13.16
2023-05-05T20:51:32.221Z,12.95
2023-05-05T20:58:51.264Z,12.82
2023-05-05T21:06:10.452Z,12.71
2023-05-05T21:13:31.360Z,12.55
2023-05-05T21:20:49.799Z,12.32
2023-05-05T21:28:08.792Z,12.29
2023-05-05T21:35:28.637Z,12.16
2023-05-05T21:42:47.338Z,12.04
2023-05-05T21:50:06.706Z,11.90
2023-05-05T21:57:27.359Z,11.70
2023-05-05T22:04:48.803Z,11.67
2023-05-05T22:12:08.828Z,11.57
2023-05-05T22:19:29.521Z,11.47
2023-05-05T22:26:48.614Z,11.33
2023-05-05T22:34:07.016Z,11.19
2023-05-05T22:41:26.984Z,11.09
2023-05-05T22:48:45.241Z,11.01
2023-05-05T22:56:04.866Z,10.94
2023-05-05T23:03:25.107Z,10.87
2023-05-05T23:10:43.516Z,10.78
2023-05-05T23:18:01.909Z,10.63
2023-05-05T23:25:21.789Z,10.59
2023-05-05T23:32:40.235Z,10.59
2023-05-05T23:39:58.844Z,10.41
2023-05-05T23:47:18.756Z,10.52
2023-05-05T23:54:37.444Z,10.41
